Time;durP1;ratioP1;P1;durP2;ratioP2;P2;SDS_P1;SDS_P2;PMS_P1;PMS_P2;Temp;Humidity;BMP_temperature;BMP_pressure;BME280_temperature;BME280_humidity;BME280_pressure;Samples;Min_cycle;Max_cycle;Signal;HPM_P1;HPM_P2
2022/07/24 00:00:07;;;;;;;6.10;3.75;;;29.70;75.90;;;;;;5154464;27;20129;-74
2022/07/24 00:02:42;;;;;;;7.53;4.05;;;29.70;75.80;;;;;;5137839;27;20046;-74
2022/07/24 00:05:10;;;;;;;4.50;3.63;;;29.70;75.80;;;;;;5154080;27;20153;-76
2022/07/24 00:07:37;;;;;;;7.07;3.55;;;29.80;76.30;;;;;;5153506;27;20038;-76
2022/07/24 00:10:06;;;;;;;6.40;4.07;;;29.90;75.80;;;;;;5135947;27;20049;-75
2022/07/24 00:12:34;;;;;;;4.75;3.55;;;29.90;75.80;;;;;;5170998;27;20120;-75
2022/07/24 00:15:02;;;;;;;6.22;3.88;;;29.90;75.70;;;;;;5152944;27;20042;-74
2022/07/24 00:17:30;;;;;;;5.00;3.75;;;29.90;75.40;;;;;;5170804;27;20061;-75
2022/07/24 00:19:58;;;;;;;7.18;3.90;;;29.90;75.30;;;;;;5170576;27;20110;-74
2022/07/24 00:22:26;;;;;;;5.20;4.10;;;29.90;75.30;;;;;;5152951;27;20034;-74
2022/07/24 00:24:53;;;;;;;5.38;4.15;;;29.80;75.30;;;;;;5153213;27;20474;-75
2022/07/24 00:27:21;;;;;;;5.60;4.18;;;29.80;75.30;;;;;;5170767;27;20056;-75
2022/07/24 00:29:48;;;;;;;6.78;4.35;;;29.80;75.50;;;;;;5152885;27;20048;-75
2022/07/24 00:32:16;;;;;;;5.50;3.97;;;29.80;75.60;;;;;;5188869;27;20046;-75
2022/07/24 00:34:44;;;;;;;6.55;4.32;;;29.70;75.70;;;;;;5153832;27;20042;-75
2022/07/24 00:37:11;;;;;;;4.97;3.60;;;29.40;75.80;;;;;;5153621;27;20053;-74
2022/07/24 00:39:40;;;;;;;7.05;4.93;;;29.30;76.20;;;;;;5147464;27;20495;-75
2022/07/24 00:42:07;;;;;;;4.78;4.07;;;29.10;76.50;;;;;;5139135;27;20085;-75
2022/07/24 00:44:35;;;;;;;6.82;3.70;;;29.00;76.90;;;;;;5139359;27;20081;-75
2022/07/24 00:47:03;;;;;;;5.32;3.95;;;28.90;77.10;;;;;;5156193;27;20122;-76
2022/07/24 00:49:30;;;;;;;5.35;3.95;;;28.90;77.30;;;;;;5139505;27;20475;-74
2022/07/24 00:51:58;;;;;;;6.60;3.85;;;28.90;77.40;;;;;;5155992;27;20137;-74
2022/07/24 00:54:26;;;;;;;6.50;4.00;;;28.90;77.40;;;;;;5138918;27;20494;-75
2022/07/24 00:56:54;;;;;;;6.85;3.95;;;28.90;77.30;;;;;;5156026;27;20470;-74
2022/07/24 00:59:22;;;;;;;4.03;3.63;;;29.00;77.30;;;;;;5138947;27;20471;-75
2022/07/24 01:01:50;;;;;;;5.38;3.97;;;29.00;77.20;;;;;;5156190;27;20052;-74
2022/07/24 01:04:19;;;;;;;9.13;4.47;;;29.10;77.10;;;;;;5139167;27;20083;-75
2022/07/24 01:06:47;;;;;;;5.03;4.07;;;29.10;77.00;;;;;;5155637;27;20049;-75
2022/07/24 01:09:16;;;;;;;5.32;4.40;;;29.10;77.10;;;;;;5139310;27;20046;-75
2022/07/24 01:11:44;;;;;;;19.80;4.97;;;29.10;77.20;;;;;;5156234;27;20177;-75
2022/07/24 01:14:11;;;;;;;4.13;3.53;;;29.10;77.10;;;;;;5138844;27;20046;-74
2022/07/24 01:16:39;;;;;;;6.57;4.72;;;29.10;77.30;;;;;;5155854;27;20042;-75
2022/07/24 01:19:06;;;;;;;5.97;4.50;;;29.10;77.80;;;;;;5155663;27;20117;-75
2022/07/24 01:21:34;;;;;;;5.57;4.28;;;29.10;78.00;;;;;;5174045;27;20042;-74
2022/07/24 01:24:02;;;;;;;9.77;4.13;;;29.20;78.40;;;;;;5138186;27;20042;-75
2022/07/24 01:26:29;;;;;;;17.02;5.88;;;29.10;78.50;;;;;;5121974;27;20781;-75
2022/07/24 01:28:57;;;;;;;28.13;8.05;;;29.00;78.20;;;;;;5155842;27;20046;-75
2022/07/24 01:31:25;;;;;;;17.92;4.93;;;28.90;78.20;;;;;;5155498;27;20034;-75
2022/07/24 01:33:52;;;;;;;8.70;4.60;;;28.80;78.50;;;;;;5155244;27;20498;-75
2022/07/24 01:36:20;;;;;;;8.95;4.65;;;28.80;79.20;;;;;;5121139;27;20056;-77
2022/07/24 01:38:47;;;;;;;6.40;4.20;;;28.80;79.40;;;;;;5173972;27;20056;-74
2022/07/24 01:41:16;;;;;;;10.75;4.57;;;28.80;79.50;;;;;;5155607;27;20050;-75
2022/07/24 01:43:43;;;;;;;8.68;4.72;;;28.80;79.70;;;;;;5120832;27;20077;-74
2022/07/24 01:46:11;;;;;;;6.28;4.38;;;28.80;79.90;;;;;;5174182;27;20087;-75
2022/07/24 01:48:43;;;;;;;6.28;4.95;;;28.80;80.10;;;;;;5137805;27;20046;-74
2022/07/24 01:51:10;;;;;;;6.78;4.35;;;28.80;80.40;;;;;;5154634;27;20046;-75
2022/07/24 01:53:38;;;;;;;5.18;4.47;;;28.90;80.50;;;;;;5137100;27;20157;-75
2022/07/24 01:56:06;;;;;;;6.45;4.45;;;28.90;80.30;;;;;;5155359;27;20034;-75
2022/07/24 01:58:33;;;;;;;8.25;5.03;;;28.90;80.20;;;;;;5137902;27;20147;-75
2022/07/24 02:01:01;;;;;;;5.65;4.15;;;28.80;80.20;;;;;;5155082;27;20052;-74
2022/07/24 02:03:29;;;;;;;5.25;4.13;;;28.80;80.30;;;;;;5154922;27;20050;-75
2022/07/24 02:05:56;;;;;;;6.50;4.47;;;28.70;80.20;;;;;;5120392;27;20468;-76
2022/07/24 02:08:27;;;;;;;5.47;4.30;;;28.70;80.20;;;;;;5138261;27;20042;-74
2022/07/24 02:10:54;;;;;;;6.15;4.07;;;28.70;80.40;;;;;;5137682;27;20146;-74
2022/07/24 02:13:22;;;;;;;5.53;4.25;;;28.70;81.00;;;;;;5155278;27;20042;-72
2022/07/24 02:15:49;;;;;;;7.40;4.78;;;28.70;81.00;;;;;;5154687;27;20053;-75
2022/07/24 02:18:17;;;;;;;6.90;4.80;;;28.60;80.90;;;;;;5154638;27;20487;-75
2022/07/24 02:20:44;;;;;;;8.18;4.25;;;28.60;80.90;;;;;;5154822;27;20050;-74
2022/07/24 02:23:17;;;;;;;5.20;4.53;;;28.60;81.00;;;;;;5173644;27;20043;-75
2022/07/24 02:25:48;;;;;;;7.07;4.97;;;28.60;81.00;;;;;;5120950;27;20050;-74
2022/07/24 02:28:17;;;;;;;5.85;5.05;;;28.70;81.10;;;;;;5137324;27;20080;-74
2022/07/24 02:30:45;;;;;;;6.30;4.78;;;28.70;81.20;;;;;;5171736;27;20073;-75
2022/07/24 02:33:13;;;;;;;7.72;4.60;;;28.70;81.30;;;;;;5153572;27;20582;-74
2022/07/24 02:35:40;;;;;;;7.57;5.32;;;28.60;81.30;;;;;;5172330;27;20042;-76
2022/07/24 02:38:08;;;;;;;6.18;5.03;;;28.70;81.70;;;;;;5154096;27;20087;-74
2022/07/24 02:40:36;;;;;;;7.82;5.22;;;28.70;82.00;;;;;;5119733;27;20042;-74
2022/07/24 02:43:03;;;;;;;10.77;4.85;;;28.70;82.10;;;;;;5153796;27;20038;-75
2022/07/24 02:45:31;;;;;;;5.55;4.80;;;28.70;82.20;;;;;;5172263;27;20124;-76
2022/07/24 02:47:59;;;;;;;8.95;5.28;;;28.70;82.70;;;;;;5154202;27;20044;-74
2022/07/24 02:50:31;;;;;;;6.18;4.93;;;28.70;82.80;;;;;;5136843;27;20046;-74
2022/07/24 02:52:59;;;;;;;5.60;4.97;;;28.70;83.10;;;;;;5136844;27;20049;-75
2022/07/24 02:55:28;;;;;;;7.43;5.35;;;28.70;83.30;;;;;;5172189;27;20046;-75
2022/07/24 02:57:56;;;;;;;7.10;4.78;;;28.70;83.70;;;;;;5153322;27;20118;-74
2022/07/24 03:00:24;;;;;;;6.60;4.80;;;28.70;83.90;;;;;;5172271;27;20133;-77
2022/07/24 03:02:52;;;;;;;7.30;5.63;;;28.70;84.00;;;;;;5136548;27;20103;-75
2022/07/24 03:05:20;;;;;;;6.57;5.45;;;28.70;84.20;;;;;;5136453;27;20103;-74
2022/07/24 03:07:48;;;;;;;6.15;5.38;;;28.60;84.20;;;;;;5153085;27;20586;-75
2022/07/24 03:10:16;;;;;;;6.03;5.40;;;28.60;84.50;;;;;;5171941;27;20445;-75
2022/07/24 03:12:43;;;;;;;8.63;5.40;;;28.60;84.90;;;;;;5119550;27;20403;-74
2022/07/24 03:15:13;;;;;;;5.45;4.78;;;28.60;85.20;;;;;;5136927;27;20054;-74
2022/07/24 03:17:49;;;;;;;7.40;5.10;;;28.60;85.60;;;;;;5135862;27;20053;-74
2022/07/24 03:20:17;;;;;;;6.95;5.00;;;28.50;86.00;;;;;;5136334;27;20133;-75
2022/07/24 03:22:45;;;;;;;7.60;5.20;;;28.50;86.00;;;;;;5172061;27;20050;-74
2022/07/24 03:25:13;;;;;;;6.88;5.15;;;28.50;86.00;;;;;;5136091;27;20048;-74
2022/07/24 03:27:41;;;;;;;7.13;5.60;;;28.40;86.30;;;;;;5135943;27;20050;-74
2022/07/24 03:30:09;;;;;;;7.07;5.20;;;28.40;86.80;;;;;;5153054;27;20046;-75
2022/07/24 03:32:37;;;;;;;9.50;5.13;;;28.40;87.10;;;;;;5136649;27;20060;-76
2022/07/24 03:35:05;;;;;;;7.50;6.05;;;28.30;87.40;;;;;;5136822;27;20629;-75
2022/07/24 03:37:33;;;;;;;8.27;5.38;;;28.30;87.30;;;;;;5154482;27;20046;-75
2022/07/24 03:40:01;;;;;;;8.57;5.50;;;28.30;87.20;;;;;;5133279;27;20062;-76
2022/07/24 03:42:29;;;;;;;6.78;5.28;;;28.30;87.20;;;;;;5132975;27;20493;-77
2022/07/24 03:44:56;;;;;;;6.88;4.97;;;28.30;87.20;;;;;;5116086;27;20433;-75
2022/07/24 03:47:24;;;;;;;8.68;5.18;;;28.40;87.40;;;;;;5151554;27;20122;-75
2022/07/24 03:49:52;;;;;;;8.93;5.70;;;28.40;87.50;;;;;;5150776;27;20482;-76
2022/07/24 03:52:19;;;;;;;7.18;5.45;;;28.40;87.30;;;;;;5115491;27;20069;-76
2022/07/24 03:54:49;;;;;;;6.85;5.07;;;28.40;87.30;;;;;;5133428;27;20047;-75
2022/07/24 03:57:17;;;;;;;11.73;5.78;;;28.50;87.20;;;;;;5133506;27;20049;-76
2022/07/24 03:59:45;;;;;;;14.07;6.18;;;28.50;87.10;;;;;;5148874;27;20047;-76
2022/07/24 04:02:13;;;;;;;13.80;5.68;;;28.50;87.00;;;;;;5150290;27;20043;-75
2022/07/24 04:04:40;;;;;;;6.97;5.35;;;28.60;86.90;;;;;;5133460;27;20097;-76
2022/07/24 04:07:16;;;;;;;11.57;6.03;;;28.60;86.70;;;;;;5150344;27;20047;-76
2022/07/24 04:09:53;;;;;;;9.25;5.63;;;28.60;86.80;;;;;;5149374;27;20103;-75
2022/07/24 04:12:20;;;;;;;7.57;5.82;;;28.60;86.90;;;;;;5132153;27;20139;-77
2022/07/24 04:14:48;;;;;;;8.48;5.07;;;28.60;86.90;;;;;;5150859;27;20054;-75
2022/07/24 04:17:15;;;;;;;7.03;5.50;;;28.60;86.40;;;;;;5153734;27;20043;-77
2022/07/24 04:19:43;;;;;;;7.13;5.25;;;28.40;86.40;;;;;;5152205;27;20045;-76
2022/07/24 04:22:10;;;;;;;6.63;5.35;;;28.40;87.10;;;;;;5154510;27;20042;-75
2022/07/24 04:24:41;;;;;;;6.60;5.88;;;28.40;86.30;;;;;;5154299;27;20522;-76
2022/07/24 04:27:08;;;;;;;6.95;4.93;;;28.50;86.10;;;;;;5120081;27;20057;-75
2022/07/24 04:29:36;;;;;;;7.90;5.30;;;28.50;85.90;;;;;;5154984;27;20150;-76
2022/07/24 04:32:03;;;;;;;7.60;5.95;;;28.50;85.70;;;;;;5153477;27;20042;-76
2022/07/24 04:34:31;;;;;;;8.00;6.10;;;28.50;85.70;;;;;;5136680;27;20042;-75
2022/07/24 04:36:59;;;;;;;7.55;5.22;;;28.60;85.70;;;;;;5154250;27;20043;-76
2022/07/24 04:39:26;;;;;;;6.47;5.88;;;28.70;85.50;;;;;;5153335;27;20053;-75
2022/07/24 04:41:54;;;;;;;7.40;5.60;;;28.70;85.20;;;;;;5154002;27;20046;-75
2022/07/24 04:44:21;;;;;;;13.02;6.95;;;28.80;85.00;;;;;;5153817;27;20054;-75
2022/07/24 04:46:49;;;;;;;6.53;5.20;;;28.90;85.00;;;;;;5136337;27;20568;-75
2022/07/24 04:49:16;;;;;;;9.82;5.25;;;28.90;84.80;;;;;;5136425;27;20139;-75
2022/07/24 04:51:44;;;;;;;7.82;5.30;;;29.10;84.80;;;;;;5135759;27;20042;-76
2022/07/24 04:54:11;;;;;;;7.68;5.40;;;29.30;84.50;;;;;;5153841;27;20045;-76
2022/07/24 04:56:39;;;;;;;9.65;5.20;;;29.30;84.30;;;;;;5153356;27;20049;-76
2022/07/24 04:59:06;;;;;;;11.63;5.65;;;29.50;84.10;;;;;;5152992;27;20047;-76
2022/07/24 05:01:34;;;;;;;9.82;6.03;;;29.60;83.70;;;;;;5136627;27;20065;-77
2022/07/24 05:04:01;;;;;;;8.65;6.75;;;29.70;83.50;;;;;;5153214;27;20050;-76
2022/07/24 05:06:29;;;;;;;12.30;8.70;;;29.90;83.10;;;;;;5153606;27;20042;-77
2022/07/24 05:08:57;;;;;;;14.10;7.80;;;30.00;83.30;;;;;;5152399;27;20522;-75
2022/07/24 05:11:24;;;;;;;17.80;8.75;;;30.20;82.50;;;;;;5154658;27;20043;-76
2022/07/24 05:13:52;;;;;;;20.77;9.20;;;30.30;82.00;;;;;;5152737;27;20122;-76
2022/07/24 05:16:19;;;;;;;19.17;9.98;;;30.40;81.70;;;;;;5153489;27;20058;-76
2022/07/24 05:18:47;;;;;;;21.60;12.55;;;30.50;81.20;;;;;;5153038;27;20115;-77
2022/07/24 05:21:15;;;;;;;37.30;18.27;;;30.60;80.30;;;;;;5152895;27;20039;-76
2022/07/24 05:23:43;;;;;;;27.48;14.70;;;30.90;80.30;;;;;;5135491;27;20809;-76
2022/07/24 05:26:10;;;;;;;30.25;12.23;;;31.00;79.70;;;;;;5154144;27;20149;-76
2022/07/24 05:28:38;;;;;;;27.27;12.48;;;31.10;79.10;;;;;;5152682;27;20043;-76
2022/07/24 05:31:08;;;;;;;24.50;11.85;;;31.30;78.80;;;;;;5118631;27;20074;-76
2022/07/24 05:33:36;;;;;;;14.88;8.68;;;31.60;78.30;;;;;;5154362;27;20041;-75
2022/07/24 05:36:04;;;;;;;11.57;6.88;;;31.90;77.00;;;;;;5136212;27;20050;-76
2022/07/24 05:38:31;;;;;;;9.13;5.95;;;32.10;76.10;;;;;;5152392;27;20834;-76
2022/07/24 05:40:59;;;;;;;7.68;5.38;;;32.30;75.90;;;;;;5135276;27;20085;-77
2022/07/24 05:43:27;;;;;;;7.25;5.65;;;32.60;75.80;;;;;;5135407;27;20050;-76
2022/07/24 05:45:54;;;;;;;7.35;4.53;;;32.80;75.40;;;;;;5152215;27;20046;-76
2022/07/24 05:48:22;;;;;;;7.68;5.15;;;33.00;74.70;;;;;;5152855;27;20066;-76
2022/07/24 05:50:49;;;;;;;8.05;4.60;;;33.10;73.70;;;;;;5135579;27;20050;-76
2022/07/24 05:53:17;;;;;;;8.65;4.55;;;33.30;72.80;;;;;;5152723;27;20069;-76
2022/07/24 05:55:44;;;;;;;7.97;4.43;;;33.40;71.00;;;;;;5152219;27;20129;-76
2022/07/24 05:58:12;;;;;;;7.88;4.20;;;33.60;68.60;;;;;;5152591;27;20161;-76
2022/07/24 06:00:39;;;;;;;4.78;4.00;;;33.70;67.80;;;;;;5152187;27;20035;-76
2022/07/24 06:03:07;;;;;;;5.28;4.20;;;33.90;67.00;;;;;;5152214;27;20046;-76
2022/07/24 06:05:35;;;;;;;7.40;4.15;;;34.00;66.30;;;;;;5134933;27;20070;-76
2022/07/24 06:08:03;;;;;;;5.20;3.22;;;34.20;65.90;;;;;;5152085;27;20091;-76
2022/07/24 06:10:31;;;;;;;5.95;4.32;;;34.30;65.20;;;;;;5135224;27;20062;-76
2022/07/24 06:12:59;;;;;;;7.13;3.92;;;34.50;65.00;;;;;;5117938;27;20043;-76
2022/07/24 06:15:27;;;;;;;5.82;3.80;;;34.60;64.00;;;;;;5135366;27;20043;-76
2022/07/24 06:17:54;;;;;;;5.50;4.63;;;34.70;63.60;;;;;;5135150;27;20039;-75
2022/07/24 06:20:22;;;;;;;5.45;3.92;;;34.80;63.90;;;;;;5134652;27;20080;-76
2022/07/24 06:22:49;;;;;;;5.72;4.15;;;35.00;62.00;;;;;;5117621;27;20093;-76
2022/07/24 06:25:18;;;;;;;5.18;3.97;;;35.10;62.20;;;;;;5153244;27;20068;-75
2022/07/24 06:27:48;;;;;;;10.27;4.45;;;35.10;59.90;;;;;;5134209;27;20047;-76
2022/07/24 06:30:24;;;;;;;12.27;4.25;;;35.20;60.40;;;;;;5152129;27;20039;-76
2022/07/24 06:32:54;;;;;;;8.82;3.92;;;35.30;59.00;;;;;;5134448;27;20153;-76
2022/07/24 06:35:23;;;;;;;11.77;4.47;;;35.30;58.40;;;;;;5134765;27;20050;-75
2022/07/24 06:37:50;;;;;;;9.10;4.40;;;35.50;59.30;;;;;;5150938;27;20119;-75
2022/07/24 06:40:20;;;;;;;6.68;3.83;;;35.60;59.10;;;;;;5134425;27;20125;-76
2022/07/24 06:42:48;;;;;;;8.93;4.07;;;35.70;58.70;;;;;;5134650;27;20073;-75
2022/07/24 06:45:16;;;;;;;7.20;5.38;;;35.80;58.90;;;;;;5151574;27;20103;-76
2022/07/24 06:47:43;;;;;;;10.20;5.47;;;35.90;61.80;;;;;;5151230;27;20500;-76
2022/07/24 06:50:12;;;;;;;11.23;6.30;;;36.00;64.30;;;;;;5150953;27;20049;-76
2022/07/24 06:52:40;;;;;;;9.70;5.35;;;36.00;64.00;;;;;;5116974;27;20047;-76
2022/07/24 06:55:08;;;;;;;9.70;6.10;;;36.00;63.60;;;;;;5152692;27;20050;-77
2022/07/24 06:57:36;;;;;;;8.50;5.50;;;36.10;64.30;;;;;;5116966;27;20043;-75
2022/07/24 07:00:07;;;;;;;8.57;5.53;;;36.10;64.70;;;;;;5134064;27;20453;-76
2022/07/24 07:02:35;;;;;;;6.80;4.85;;;36.20;64.70;;;;;;5151161;27;20038;-76
2022/07/24 07:05:06;;;;;;;5.78;4.97;;;36.20;63.40;;;;;;5151124;27;20107;-76
2022/07/24 07:07:35;;;;;;;8.50;5.13;;;36.20;63.80;;;;;;5151149;27;20038;-76
2022/07/24 07:10:05;;;;;;;5.88;4.72;;;36.40;64.10;;;;;;5134261;27;20042;-76
2022/07/24 07:12:32;;;;;;;5.15;4.32;;;36.40;63.80;;;;;;5133783;27;20574;-76
2022/07/24 07:15:05;;;;;;;6.78;5.32;;;36.50;63.80;;;;;;5152453;27;20070;-76
2022/07/24 07:17:32;;;;;;;6.97;4.25;;;36.60;64.10;;;;;;5116289;27;20091;-75
2022/07/24 07:20:00;;;;;;;5.95;4.75;;;36.70;63.50;;;;;;5150663;27;20396;-75
2022/07/24 07:22:28;;;;;;;7.60;4.53;;;36.70;63.00;;;;;;5151043;27;20042;-76
2022/07/24 07:24:55;;;;;;;5.38;4.00;;;36.50;62.20;;;;;;5134094;27;20141;-76
2022/07/24 07:27:23;;;;;;;5.60;4.07;;;36.40;59.40;;;;;;5133963;27;20062;-76
2022/07/24 07:29:50;;;;;;;5.00;4.35;;;36.50;59.30;;;;;;5150936;27;20055;-75
2022/07/24 07:32:17;;;;;;;5.18;4.57;;;36.50;59.50;;;;;;5133529;27;20050;-76
2022/07/24 07:34:45;;;;;;;5.40;4.68;;;36.70;59.40;;;;;;5133319;27;20141;-76
2022/07/24 07:37:13;;;;;;;6.05;5.45;;;36.80;59.20;;;;;;5151950;27;20129;-76
2022/07/24 07:39:40;;;;;;;4.32;3.92;;;36.90;59.30;;;;;;5150274;27;20160;-76
2022/07/24 07:42:08;;;;;;;6.90;4.10;;;37.00;58.70;;;;;;5133663;27;20042;-76
2022/07/24 07:44:35;;;;;;;5.45;3.80;;;37.10;57.60;;;;;;5133069;27;20047;-76
2022/07/24 07:47:03;;;;;;;6.90;3.75;;;37.10;57.50;;;;;;5150254;27;20525;-76
2022/07/24 07:49:45;;;;;;;4.95;3.88;;;37.20;57.80;;;;;;5152350;27;20126;-76
2022/07/24 07:52:15;;;;;;;7.00;3.88;;;37.20;57.90;;;;;;5156065;27;20828;-75
2022/07/24 07:54:42;;;;;;;5.32;3.80;;;37.30;57.90;;;;;;5154740;27;20471;-76
2022/07/24 07:57:10;;;;;;;4.63;3.50;;;37.40;57.20;;;;;;5137658;27;20046;-76
2022/07/24 07:59:38;;;;;;;5.80;4.13;;;37.40;57.40;;;;;;5120184;27;20107;-80
2022/07/24 08:02:06;;;;;;;5.10;4.03;;;37.30;56.50;;;;;;5137722;27;20074;-76
2022/07/24 08:04:35;;;;;;;4.05;3.28;;;37.00;56.00;;;;;;5154588;27;20039;-75
2022/07/24 08:07:02;;;;;;;4.10;3.50;;;37.00;56.40;;;;;;5137655;27;20047;-76
2022/07/24 08:09:30;;;;;;;6.05;3.88;;;37.10;57.00;;;;;;5154301;27;20859;-75
2022/07/24 08:11:57;;;;;;;4.50;3.05;;;37.30;57.40;;;;;;5154235;27;20042;-76
2022/07/24 08:14:25;;;;;;;5.28;3.47;;;37.30;55.80;;;;;;5154685;27;20053;-76
2022/07/24 08:16:53;;;;;;;5.43;3.40;;;37.10;54.80;;;;;;5154224;27;20054;-76
2022/07/24 08:19:20;;;;;;;7.47;4.07;;;37.20;55.60;;;;;;5154445;27;20544;-75
2022/07/24 08:21:49;;;;;;;4.32;3.45;;;37.10;56.00;;;;;;5153950;27;20050;-76
2022/07/24 08:24:20;;;;;;;5.75;3.67;;;37.00;56.40;;;;;;5154202;27;20635;-75
2022/07/24 08:26:48;;;;;;;6.57;3.97;;;37.10;56.90;;;;;;5137113;27;20129;-75
2022/07/24 08:29:17;;;;;;;4.57;3.35;;;37.20;56.90;;;;;;5119099;27;20081;-75
2022/07/24 08:31:44;;;;;;;6.35;3.45;;;37.20;55.60;;;;;;5142543;27;20096;-78
2022/07/24 08:34:12;;;;;;;4.38;3.17;;;37.40;55.40;;;;;;5148910;27;20043;-75
2022/07/24 08:36:39;;;;;;;4.82;3.58;;;37.50;55.90;;;;;;5139532;27;20104;-76
2022/07/24 08:39:07;;;;;;;4.95;3.35;;;37.70;56.10;;;;;;5106404;27;20468;-77
2022/07/24 08:41:35;;;;;;;4.60;3.50;;;37.80;55.30;;;;;;5095552;28;20044;-76
2022/07/24 08:44:03;;;;;;;4.55;2.95;;;37.60;54.00;;;;;;5095608;28;20055;-76
2022/07/24 08:46:32;;;;;;;5.15;3.55;;;37.70;54.30;;;;;;5112623;28;20071;-75
2022/07/24 08:49:06;;;;;;;11.93;4.05;;;37.70;54.40;;;;;;5112453;28;20402;-75
2022/07/24 08:51:37;;;;;;;7.82;4.22;;;37.90;54.90;;;;;;5095424;28;20466;-77
2022/07/24 08:54:06;;;;;;;6.90;3.97;;;38.10;55.30;;;;;;5095725;28;20054;-75
2022/07/24 08:56:36;;;;;;;6.78;4.15;;;38.20;56.10;;;;;;5112365;28;20047;-75
2022/07/24 08:59:04;;;;;;;6.65;3.95;;;38.30;56.40;;;;;;5095647;28;20039;-75
2022/07/24 09:01:32;;;;;;;5.75;3.58;;;38.40;56.50;;;;;;5111721;27;20127;-76
2022/07/24 09:03:59;;;;;;;7.85;3.72;;;38.30;56.50;;;;;;5094711;28;20074;-74
2022/07/24 09:06:27;;;;;;;7.15;4.22;;;38.40;56.70;;;;;;5095406;28;20188;-73
2022/07/24 09:09:02;;;;;;;5.35;3.83;;;38.50;57.10;;;;;;5095322;28;20400;-74
2022/07/24 09:11:35;;;;;;;5.45;3.92;;;38.60;57.40;;;;;;5113309;28;20048;-74
2022/07/24 09:16:50;;;;;;;6.95;3.55;;;38.60;57.80;;;;;;5112123;28;20124;-76
2022/07/24 09:19:17;;;;;;;4.78;3.90;;;38.60;58.30;;;;;;5111968;28;20039;-75
2022/07/24 09:21:48;;;;;;;5.25;3.42;;;38.60;58.60;;;;;;5111517;28;20056;-76
2022/07/24 09:24:18;;;;;;;4.43;3.78;;;38.80;58.30;;;;;;5112964;28;20390;-75
2022/07/24 09:26:49;;;;;;;6.55;4.10;;;38.80;58.50;;;;;;5111416;28;20120;-76
2022/07/24 09:29:18;;;;;;;4.97;3.72;;;38.80;58.10;;;;;;5095197;28;20603;-75
2022/07/24 09:32:04;;;;;;;5.25;3.80;;;38.70;58.30;;;;;;5111561;28;20568;-75
2022/07/24 09:34:39;;;;;;;4.95;3.42;;;38.70;58.30;;;;;;5111714;28;20044;-75
2022/07/24 09:37:08;;;;;;;5.70;3.33;;;38.60;58.20;;;;;;5111444;28;20051;-76
2022/07/24 09:39:38;;;;;;;6.60;3.78;;;38.40;58.20;;;;;;5142352;27;20046;-75
2022/07/24 09:42:07;;;;;;;6.53;4.30;;;38.40;58.60;;;;;;5118175;27;20054;-76
2022/07/24 09:44:35;;;;;;;5.60;3.83;;;38.30;58.70;;;;;;5118617;27;20047;-76
2022/07/24 09:47:08;;;;;;;6.25;3.80;;;38.30;58.70;;;;;;5135477;27;20050;-75
2022/07/24 09:49:38;;;;;;;5.85;3.85;;;38.20;58.80;;;;;;5118181;27;20046;-76
2022/07/24 09:52:13;;;;;;;5.45;3.90;;;38.30;58.70;;;;;;5118565;27;20053;-75
2022/07/24 09:54:47;;;;;;;6.85;3.95;;;38.30;58.80;;;;;;5101082;27;20043;-77
2022/07/24 09:57:22;;;;;;;6.03;4.38;;;38.40;58.60;;;;;;5135481;27;20053;-76
2022/07/24 09:59:53;;;;;;;7.03;3.92;;;38.40;58.90;;;;;;5134917;27;20096;-75
2022/07/24 10:02:25;;;;;;;5.95;4.72;;;38.50;59.00;;;;;;5118297;27;20133;-76
2022/07/24 10:04:53;;;;;;;9.50;4.35;;;38.60;58.70;;;;;;5135237;27;20121;-76
2022/07/24 10:07:22;;;;;;;4.97;4.45;;;38.70;58.50;;;;;;5117913;27;20497;-76
2022/07/24 10:09:52;;;;;;;5.55;4.55;;;38.80;59.00;;;;;;5134664;27;20064;-76
2022/07/24 10:12:29;;;;;;;6.68;4.88;;;38.80;60.00;;;;;;5133994;27;20125;-75
2022/07/24 10:14:59;;;;;;;5.70;4.03;;;38.80;61.90;;;;;;5118022;27;20038;-75
2022/07/24 10:17:33;;;;;;;8.43;5.00;;;38.80;62.10;;;;;;5118194;27;20066;-76
2022/07/24 10:20:05;;;;;;;6.75;4.93;;;38.80;61.10;;;;;;5134584;27;20046;-76
2022/07/24 10:23:05;;;;;;;5.53;5.00;;;38.70;61.90;;;;;;5152978;27;20126;-75
2022/07/24 10:25:57;;;;;;;7.13;4.90;;;38.60;61.90;;;;;;5100938;27;20481;-75
2022/07/24 10:28:48;;;;;;;6.47;4.07;;;38.50;61.70;;;;;;5134804;27;20043;-75
2022/07/24 10:31:16;;;;;;;5.90;4.13;;;38.50;61.60;;;;;;5100625;27;20051;-76
2022/07/24 10:33:52;;;;;;;5.57;4.25;;;38.40;61.90;;;;;;5134158;27;20046;-75
2022/07/24 10:36:27;;;;;;;5.13;4.47;;;38.30;62.10;;;;;;5117365;27;20035;-75
2022/07/24 10:39:08;;;;;;;6.90;4.45;;;38.10;61.90;;;;;;5093221;28;20512;-77
2022/07/24 10:41:36;;;;;;;4.68;4.18;;;37.90;62.10;;;;;;5111414;28;20043;-76
2022/07/24 10:44:17;;;;;;;7.10;4.93;;;37.90;62.40;;;;;;5110877;28;20046;-74
2022/07/24 10:47:01;;;;;;;6.80;4.45;;;37.90;62.20;;;;;;5093518;28;20075;-75
2022/07/24 10:49:36;;;;;;;6.80;4.38;;;37.90;62.00;;;;;;5092968;28;20074;-75
2022/07/24 10:52:04;;;;;;;4.70;4.18;;;37.90;61.90;;;;;;5093348;28;20082;-75
2022/07/24 10:54:31;;;;;;;6.78;4.55;;;37.80;61.90;;;;;;5093694;28;20090;-75
2022/07/24 10:56:59;;;;;;;7.43;4.60;;;37.70;62.00;;;;;;5093269;28;20046;-74
2022/07/24 10:59:35;;;;;;;10.05;4.07;;;37.80;62.50;;;;;;5110083;28;20565;-74
2022/07/24 11:02:25;;;;;;;5.55;3.95;;;37.70;62.50;;;;;;5093072;28;20090;-74
2022/07/24 11:05:36;;;;;;;5.30;4.60;;;37.60;62.70;;;;;;5110262;28;20040;-74
2022/07/24 11:08:12;;;;;;;7.00;5.15;;;37.50;62.60;;;;;;5071041;28;20128;-74
2022/07/24 11:10:49;;;;;;;4.57;4.05;;;37.40;62.60;;;;;;5038493;28;20139;-74
2022/07/24 11:13:32;;;;;;;5.63;4.40;;;37.40;62.90;;;;;;5061490;28;20051;-74
2022/07/24 11:16:15;;;;;;;5.28;4.25;;;37.30;62.20;;;;;;5109505;28;20524;-74
2022/07/24 11:19:02;;;;;;;5.20;4.20;;;37.40;61.70;;;;;;5093203;28;20067;-74
2022/07/24 11:21:31;;;;;;;7.25;4.43;;;37.40;61.40;;;;;;5093214;28;20040;-75
2022/07/24 11:24:17;;;;;;;5.78;4.30;;;37.40;61.60;;;;;;5109353;28;20050;-74
2022/07/24 11:26:50;;;;;;;7.82;4.38;;;37.40;60.80;;;;;;5092941;28;20085;-74
2022/07/24 11:29:26;;;;;;;6.07;4.30;;;37.40;60.40;;;;;;5076208;28;20148;-74
2022/07/24 11:31:58;;;;;;;4.95;4.18;;;37.40;60.50;;;;;;5109381;28;20485;-75
2022/07/24 11:34:27;;;;;;;5.72;4.57;;;37.50;60.80;;;;;;5110976;28;20047;-74
2022/07/24 11:36:56;;;;;;;12.85;4.03;;;37.60;60.50;;;;;;5109882;28;20040;-75
2022/07/24 11:39:32;;;;;;;5.45;4.88;;;37.40;59.90;;;;;;5125707;27;20397;-74
2022/07/24 11:42:05;;;;;;;11.32;4.32;;;37.40;59.90;;;;;;5116015;27;20039;-75
2022/07/24 11:44:39;;;;;;;6.95;4.70;;;37.20;59.70;;;;;;5133754;27;20046;-73
2022/07/24 11:47:20;;;;;;;6.90;4.50;;;37.20;60.00;;;;;;5133480;27;20058;-73
2022/07/24 11:49:54;;;;;;;6.80;4.60;;;37.20;59.90;;;;;;5098924;27;20054;-75
2022/07/24 11:52:25;;;;;;;6.77;4.20;;;37.20;60.00;;;;;;5116529;27;20070;-74
2022/07/24 11:54:55;;;;;;;8.35;5.55;;;37.10;59.80;;;;;;5133689;27;20046;-74
2022/07/24 11:57:35;;;;;;;5.65;4.63;;;37.10;59.90;;;;;;5116496;27;20444;-74
2022/07/24 12:00:26;;;;;;;6.47;4.57;;;37.10;59.50;;;;;;5102136;27;20062;-74
2022/07/24 12:03:01;;;;;;;5.13;3.70;;;37.20;59.60;;;;;;5116655;27;20531;-73
2022/07/24 12:05:31;;;;;;;7.30;5.25;;;37.10;59.00;;;;;;5133510;27;20038;-75
2022/07/24 12:08:00;;;;;;;5.78;4.65;;;36.90;59.30;;;;;;5133409;27;20404;-74
2022/07/24 12:10:29;;;;;;;7.68;3.97;;;36.90;59.20;;;;;;5133553;27;20430;-74
2022/07/24 12:12:57;;;;;;;5.80;4.43;;;36.90;59.60;;;;;;5133432;27;20141;-74
2022/07/24 12:15:26;;;;;;;5.25;4.15;;;37.00;59.40;;;;;;5151428;27;20043;-73
2022/07/24 12:17:59;;;;;;;4.32;3.83;;;37.00;59.20;;;;;;5116083;27;20100;-74
2022/07/24 12:20:38;;;;;;;4.47;3.72;;;36.80;59.00;;;;;;5116229;27;20082;-74
2022/07/24 12:23:12;;;;;;;7.82;4.05;;;36.80;59.60;;;;;;5133165;27;20488;-74
2022/07/24 12:25:41;;;;;;;6.93;3.90;;;36.80;59.20;;;;;;5133129;27;20521;-74
2022/07/24 12:28:17;;;;;;;9.40;3.88;;;36.80;59.00;;;;;;5115807;27;20046;-74
2022/07/24 12:30:48;;;;;;;7.13;4.80;;;36.70;58.90;;;;;;5116316;27;20038;-75
2022/07/24 12:33:17;;;;;;;5.18;4.00;;;36.70;58.70;;;;;;5116362;27;20042;-74
2022/07/24 12:35:53;;;;;;;9.00;3.85;;;36.50;58.90;;;;;;5152032;27;20563;-74
2022/07/24 12:38:42;;;;;;;7.05;4.45;;;36.40;59.00;;;;;;5136728;27;20145;-73
2022/07/24 12:41:15;;;;;;;8.20;4.53;;;36.50;59.50;;;;;;5119597;27;20114;-74
2022/07/24 12:43:53;;;;;;;6.07;4.05;;;36.50;59.20;;;;;;5155040;27;20095;-74
2022/07/24 12:46:23;;;;;;;6.78;3.97;;;36.50;59.20;;;;;;5119692;27;20076;-74
2022/07/24 12:49:01;;;;;;;5.28;4.13;;;36.60;59.30;;;;;;5154787;27;20046;-74
2022/07/24 12:52:01;;;;;;;5.38;3.35;;;36.40;58.70;;;;;;5136783;27;20557;-74
2022/07/24 12:54:34;;;;;;;4.38;3.67;;;36.20;59.10;;;;;;5119206;27;20122;-74
2022/07/24 12:57:08;;;;;;;5.07;3.75;;;36.20;59.00;;;;;;5119318;27;20103;-74
2022/07/24 12:59:38;;;;;;;5.68;3.65;;;36.20;59.10;;;;;;5102768;27;20039;-74
2022/07/24 13:02:07;;;;;;;5.18;3.53;;;36.20;59.10;;;;;;5119232;27;20047;-73